Nerlerit Inaat

KL  EN  DA
ASIAQ
Weather Now GREENLAND SURVEY
Updated [WGT/WGST] Temperature [°C] Wind [m/s] Air pressure [hPa] Relative humidity [%] Precipitation [mm]
Present Wind chill Speed Max
21.01 19:00-10,6-25,022,8 ⇓n/a99089n/a
21.01 18:00-10,7-25,424,1 ⇓n/a99089n/a
21.01 17:00-10,4-24,522,0 ⇓n/a99088n/a
21.01 16:00-10,9-25,121,6 ⇓n/a99188n/a
21.01 15:00-11,4-25,219,2 ⇓n/a99388n/a
21.01 14:00-11,9-25,818,6 ⇓n/a99486n/a
21.01 13:00-11,8-25,417,9 ⇓n/a99585n/a
21.01 12:00-11,9-25,216,7 ⇓n/a99683n/a
21.01 11:00-12,5-25,414,6 ⇓n/a99882n/a
21.01 10:00-12,7-25,614,5 ⇓n/a99883n/a
21.01 09:00-13,8-26,713,4 ⇓n/a99979n/a
21.01 08:00-14,6-28,014,0 ⇓n/a99982n/a
21.01 07:00-15,5-29,514,6 ⇓n/a99982n/a
21.01 06:00-14,6-27,612,9 ⇓n/a99979n/a
21.01 05:00-15,2-27,310,3 ⇓n/a99981n/a
21.01 04:00-15,6-27,59,6 ⇓n/a99883n/a
21.01 03:00-14,7-25,88,7 ⇓n/a99882n/a
21.01 02:00-15,4-22,93,7 ⇓n/a99880n/a
21.01 01:00-17,3-22,21,8 ⇘n/a99879n/a
21.01 00:00-20,7-27,42,4 ⇘n/a99781n/a
20.01 23:00-21,30,01,1 ⇓n/a99778n/a
20.01 22:00-22,40,00,9 ⇙n/a99781n/a
20.01 21:00-21,4-28,52,6 ⇓n/a99686n/a
20.01 20:00-21,3-26,01,5 ⇓n/a99682n/a
20.01 19:00-21,9-26,71,5 ⇓n/a99683n/a
Position: (70.75,-22.65)

[Back]